sensor_id;sensor_type;location;lat;lon;timestamp;P1;durP1;ratioP1;P2;durP2;ratioP2
55082;SDS011;40978;52.850;6.506;2022-08-30T00:00:13;8.00;;;4.40;;
55082;SDS011;40978;52.850;6.506;2022-08-30T00:03:01;7.65;;;4.18;;
55082;SDS011;40978;52.850;6.506;2022-08-30T00:05:28;6.90;;;4.45;;
55082;SDS011;40978;52.850;6.506;2022-08-30T00:07:54;7.30;;;4.70;;
55082;SDS011;40978;52.850;6.506;2022-08-30T00:10:20;6.90;;;4.75;;
55082;SDS011;40978;52.850;6.506;2022-08-30T00:12:46;9.90;;;4.70;;
55082;SDS011;40978;52.850;6.506;2022-08-30T00:15:13;7.97;;;4.90;;
55082;SDS011;40978;52.850;6.506;2022-08-30T00:17:39;7.25;;;5.15;;
55082;SDS011;40978;52.850;6.506;2022-08-30T00:20:07;8.27;;;4.63;;
55082;SDS011;40978;52.850;6.506;2022-08-30T00:22:35;6.15;;;4.63;;
55082;SDS011;40978;52.850;6.506;2022-08-30T00:25:01;8.05;;;5.30;;
55082;SDS011;40978;52.850;6.506;2022-08-30T00:27:27;8.00;;;5.13;;
55082;SDS011;40978;52.850;6.506;2022-08-30T00:29:53;8.32;;;4.93;;
55082;SDS011;40978;52.850;6.506;2022-08-30T00:32:20;5.97;;;4.40;;
55082;SDS011;40978;52.850;6.506;2022-08-30T00:34:47;7.63;;;4.57;;
55082;SDS011;40978;52.850;6.506;2022-08-30T00:37:14;8.20;;;4.78;;
55082;SDS011;40978;52.850;6.506;2022-08-30T00:39:39;5.78;;;4.47;;
55082;SDS011;40978;52.850;6.506;2022-08-30T00:42:06;5.55;;;4.50;;
55082;SDS011;40978;52.850;6.506;2022-08-30T00:44:33;5.95;;;4.10;;
55082;SDS011;40978;52.850;6.506;2022-08-30T00:46:59;7.85;;;3.83;;
55082;SDS011;40978;52.850;6.506;2022-08-30T00:49:25;6.25;;;4.55;;
55082;SDS011;40978;52.850;6.506;2022-08-30T00:51:52;6.05;;;4.10;;
55082;SDS011;40978;52.850;6.506;2022-08-30T00:54:19;12.65;;;4.75;;
55082;SDS011;40978;52.850;6.506;2022-08-30T00:56:45;4.07;;;3.67;;
55082;SDS011;40978;52.850;6.506;2022-08-30T00:59:12;5.50;;;4.15;;
55082;SDS011;40978;52.850;6.506;2022-08-30T01:01:38;6.28;;;4.47;;
55082;SDS011;40978;52.850;6.506;2022-08-30T01:04:04;7.22;;;3.70;;
55082;SDS011;40978;52.850;6.506;2022-08-30T01:06:32;5.65;;;3.67;;
55082;SDS011;40978;52.850;6.506;2022-08-30T01:08:59;5.53;;;3.70;;
55082;SDS011;40978;52.850;6.506;2022-08-30T01:11:26;7.68;;;4.00;;
55082;SDS011;40978;52.850;6.506;2022-08-30T01:13:52;7.07;;;3.60;;
55082;SDS011;40978;52.850;6.506;2022-08-30T01:16:20;7.72;;;3.53;;
55082;SDS011;40978;52.850;6.506;2022-08-30T01:18:47;8.52;;;3.83;;
55082;SDS011;40978;52.850;6.506;2022-08-30T01:24:03;9.52;;;3.75;;
55082;SDS011;40978;52.850;6.506;2022-08-30T01:26:30;7.93;;;3.65;;
55082;SDS011;40978;52.850;6.506;2022-08-30T01:28:59;7.07;;;3.38;;
55082;SDS011;40978;52.850;6.506;2022-08-30T01:31:29;5.90;;;3.05;;
55082;SDS011;40978;52.850;6.506;2022-08-30T01:33:56;5.90;;;3.90;;
55082;SDS011;40978;52.850;6.506;2022-08-30T01:36:22;7.90;;;3.92;;
55082;SDS011;40978;52.850;6.506;2022-08-30T01:38:50;5.38;;;3.55;;
55082;SDS011;40978;52.850;6.506;2022-08-30T01:41:25;3.60;;;2.97;;
55082;SDS011;40978;52.850;6.506;2022-08-30T01:43:54;8.43;;;3.50;;
55082;SDS011;40978;52.850;6.506;2022-08-30T01:46:23;4.85;;;3.50;;
55082;SDS011;40978;52.850;6.506;2022-08-30T01:48:51;5.75;;;3.53;;
55082;SDS011;40978;52.850;6.506;2022-08-30T01:51:18;4.43;;;3.30;;
55082;SDS011;40978;52.850;6.506;2022-08-30T01:53:46;4.82;;;3.47;;
55082;SDS011;40978;52.850;6.506;2022-08-30T01:56:12;5.78;;;3.60;;
55082;SDS011;40978;52.850;6.506;2022-08-30T01:58:39;4.25;;;3.13;;
55082;SDS011;40978;52.850;6.506;2022-08-30T02:01:07;5.72;;;3.33;;
55082;SDS011;40978;52.850;6.506;2022-08-30T02:03:36;6.63;;;3.65;;
55082;SDS011;40978;52.850;6.506;2022-08-30T02:06:04;7.55;;;3.70;;
55082;SDS011;40978;52.850;6.506;2022-08-30T02:08:31;6.68;;;3.92;;
55082;SDS011;40978;52.850;6.506;2022-08-30T02:10:57;5.85;;;3.45;;
55082;SDS011;40978;52.850;6.506;2022-08-30T02:13:24;5.50;;;3.20;;
55082;SDS011;40978;52.850;6.506;2022-08-30T02:15:50;5.47;;;3.03;;
55082;SDS011;40978;52.850;6.506;2022-08-30T02:18:18;4.75;;;3.10;;
55082;SDS011;40978;52.850;6.506;2022-08-30T02:20:44;5.25;;;3.25;;
55082;SDS011;40978;52.850;6.506;2022-08-30T02:23:10;5.72;;;3.80;;
55082;SDS011;40978;52.850;6.506;2022-08-30T02:25:36;4.45;;;3.45;;
55082;SDS011;40978;52.850;6.506;2022-08-30T02:28:02;5.93;;;3.47;;
55082;SDS011;40978;52.850;6.506;2022-08-30T02:30:28;10.00;;;4.28;;
55082;SDS011;40978;52.850;6.506;2022-08-30T02:32:54;4.07;;;3.42;;
55082;SDS011;40978;52.850;6.506;2022-08-30T02:35:20;7.97;;;4.28;;
55082;SDS011;40978;52.850;6.506;2022-08-30T02:37:45;5.53;;;3.72;;
55082;SDS011;40978;52.850;6.506;2022-08-30T02:40:11;4.70;;;4.03;;
55082;SDS011;40978;52.850;6.506;2022-08-30T02:42:37;7.25;;;4.20;;
55082;SDS011;40978;52.850;6.506;2022-08-30T02:45:03;6.25;;;4.05;;
55082;SDS011;40978;52.850;6.506;2022-08-30T02:47:29;6.32;;;3.83;;
55082;SDS011;40978;52.850;6.506;2022-08-30T02:49:55;4.70;;;3.72;;
55082;SDS011;40978;52.850;6.506;2022-08-30T02:52:20;8.00;;;4.45;;
55082;SDS011;40978;52.850;6.506;2022-08-30T02:54:47;6.57;;;4.07;;
55082;SDS011;40978;52.850;6.506;2022-08-30T02:57:12;6.40;;;4.30;;
55082;SDS011;40978;52.850;6.506;2022-08-30T02:59:38;5.22;;;4.25;;
55082;SDS011;40978;52.850;6.506;2022-08-30T03:02:08;6.88;;;4.10;;
55082;SDS011;40978;52.850;6.506;2022-08-30T03:04:35;8.02;;;4.18;;
55082;SDS011;40978;52.850;6.506;2022-08-30T03:07:03;6.43;;;4.15;;
55082;SDS011;40978;52.850;6.506;2022-08-30T03:09:30;5.47;;;4.18;;
55082;SDS011;40978;52.850;6.506;2022-08-30T03:11:56;6.72;;;4.45;;
55082;SDS011;40978;52.850;6.506;2022-08-30T03:14:21;6.22;;;4.65;;
55082;SDS011;40978;52.850;6.506;2022-08-30T03:16:48;7.28;;;4.68;;
55082;SDS011;40978;52.850;6.506;2022-08-30T03:19:14;6.28;;;4.32;;
55082;SDS011;40978;52.850;6.506;2022-08-30T03:21:39;7.95;;;5.00;;
55082;SDS011;40978;52.850;6.506;2022-08-30T03:24:08;6.78;;;5.15;;
55082;SDS011;40978;52.850;6.506;2022-08-30T03:26:34;8.75;;;5.78;;
55082;SDS011;40978;52.850;6.506;2022-08-30T03:29:00;7.75;;;5.28;;
55082;SDS011;40978;52.850;6.506;2022-08-30T03:31:27;9.30;;;5.43;;
55082;SDS011;40978;52.850;6.506;2022-08-30T03:33:53;8.27;;;5.22;;
55082;SDS011;40978;52.850;6.506;2022-08-30T03:36:19;6.45;;;5.20;;
55082;SDS011;40978;52.850;6.506;2022-08-30T03:38:45;6.00;;;5.40;;
55082;SDS011;40978;52.850;6.506;2022-08-30T03:41:11;7.30;;;5.07;;
55082;SDS011;40978;52.850;6.506;2022-08-30T03:43:37;7.28;;;5.50;;
55082;SDS011;40978;52.850;6.506;2022-08-30T03:46:03;6.43;;;4.93;;
55082;SDS011;40978;52.850;6.506;2022-08-30T03:48:29;8.68;;;6.10;;
55082;SDS011;40978;52.850;6.506;2022-08-30T03:50:55;8.18;;;6.30;;
55082;SDS011;40978;52.850;6.506;2022-08-30T03:53:21;5.88;;;5.28;;
55082;SDS011;40978;52.850;6.506;2022-08-30T03:55:47;9.85;;;5.70;;
55082;SDS011;40978;52.850;6.506;2022-08-30T03:58:13;7.55;;;5.80;;
55082;SDS011;40978;52.850;6.506;2022-08-30T04:00:38;10.68;;;6.55;;
55082;SDS011;40978;52.850;6.506;2022-08-30T04:03:04;6.88;;;5.53;;
55082;SDS011;40978;52.850;6.506;2022-08-30T04:05:29;6.38;;;5.10;;
55082;SDS011;40978;52.850;6.506;2022-08-30T04:07:55;8.45;;;5.85;;
55082;SDS011;40978;52.850;6.506;2022-08-30T04:10:21;7.28;;;5.93;;
55082;SDS011;40978;52.850;6.506;2022-08-30T04:12:47;10.45;;;5.80;;
55082;SDS011;40978;52.850;6.506;2022-08-30T04:15:14;11.40;;;5.57;;
55082;SDS011;40978;52.850;6.506;2022-08-30T04:17:41;8.68;;;6.20;;
55082;SDS011;40978;52.850;6.506;2022-08-30T04:20:06;8.63;;;5.32;;
55082;SDS011;40978;52.850;6.506;2022-08-30T04:22:33;8.02;;;5.95;;
55082;SDS011;40978;52.850;6.506;2022-08-30T04:24:58;7.72;;;6.07;;
55082;SDS011;40978;52.850;6.506;2022-08-30T04:27:24;8.50;;;6.10;;
55082;SDS011;40978;52.850;6.506;2022-08-30T04:29:49;10.07;;;6.55;;
55082;SDS011;40978;52.850;6.506;2022-08-30T04:32:15;9.07;;;6.00;;
55082;SDS011;40978;52.850;6.506;2022-08-30T04:34:41;8.23;;;5.95;;
55082;SDS011;40978;52.850;6.506;2022-08-30T04:37:07;6.63;;;5.93;;
55082;SDS011;40978;52.850;6.506;2022-08-30T04:39:33;9.35;;;6.38;;
55082;SDS011;40978;52.850;6.506;2022-08-30T04:41:59;8.60;;;5.95;;
55082;SDS011;40978;52.850;6.506;2022-08-30T04:44:27;11.25;;;6.68;;
55082;SDS011;40978;52.850;6.506;2022-08-30T04:46:53;9.20;;;6.13;;
55082;SDS011;40978;52.850;6.506;2022-08-30T04:49:18;8.77;;;6.00;;
55082;SDS011;40978;52.850;6.506;2022-08-30T04:51:44;7.13;;;5.70;;
55082;SDS011;40978;52.850;6.506;2022-08-30T04:54:10;6.40;;;5.80;;
55082;SDS011;40978;52.850;6.506;2022-08-30T04:56:36;11.20;;;6.28;;
55082;SDS011;40978;52.850;6.506;2022-08-30T04:59:02;8.20;;;6.03;;
55082;SDS011;40978;52.850;6.506;2022-08-30T05:01:29;11.55;;;6.80;;
55082;SDS011;40978;52.850;6.506;2022-08-30T05:03:56;8.18;;;5.95;;
55082;SDS011;40978;52.850;6.506;2022-08-30T05:06:24;7.80;;;6.50;;
55082;SDS011;40978;52.850;6.506;2022-08-30T05:08:53;8.85;;;6.50;;
55082;SDS011;40978;52.850;6.506;2022-08-30T05:11:19;7.75;;;6.63;;
55082;SDS011;40978;52.850;6.506;2022-08-30T05:13:47;8.82;;;6.20;;
55082;SDS011;40978;52.850;6.506;2022-08-30T05:16:13;10.18;;;6.78;;
55082;SDS011;40978;52.850;6.506;2022-08-30T05:18:42;9.55;;;5.97;;
55082;SDS011;40978;52.850;6.506;2022-08-30T05:23:43;8.83;;;7.30;;
55082;SDS011;40978;52.850;6.506;2022-08-30T05:26:10;10.30;;;8.02;;
55082;SDS011;40978;52.850;6.506;2022-08-30T05:28:40;10.90;;;8.15;;
55082;SDS011;40978;52.850;6.506;2022-08-30T05:31:13;9.50;;;8.13;;
55082;SDS011;40978;52.850;6.506;2022-08-30T05:33:49;9.35;;;8.25;;
55082;SDS011;40978;52.850;6.506;2022-08-30T05:36:17;10.02;;;8.68;;
55082;SDS011;40978;52.850;6.506;2022-08-30T05:38:44;13.80;;;8.57;;
55082;SDS011;40978;52.850;6.506;2022-08-30T05:41:10;10.00;;;8.32;;
55082;SDS011;40978;52.850;6.506;2022-08-30T05:43:36;14.77;;;8.73;;
55082;SDS011;40978;52.850;6.506;2022-08-30T05:46:04;8.93;;;8.02;;
55082;SDS011;40978;52.850;6.506;2022-08-30T05:48:32;9.65;;;7.82;;
55082;SDS011;40978;52.850;6.506;2022-08-30T05:51:09;8.75;;;7.20;;
55082;SDS011;40978;52.850;6.506;2022-08-30T05:53:37;9.38;;;7.15;;
55082;SDS011;40978;52.850;6.506;2022-08-30T05:56:04;7.25;;;6.50;;
55082;SDS011;40978;52.850;6.506;2022-08-30T05:58:33;7.20;;;6.45;;
55082;SDS011;40978;52.850;6.506;2022-08-30T06:00:59;8.85;;;6.80;;
55082;SDS011;40978;52.850;6.506;2022-08-30T06:03:25;11.10;;;6.72;;
55082;SDS011;40978;52.850;6.506;2022-08-30T06:05:52;10.07;;;6.13;;
55082;SDS011;40978;52.850;6.506;2022-08-30T06:08:18;11.80;;;6.25;;
55082;SDS011;40978;52.850;6.506;2022-08-30T06:10:46;10.10;;;5.90;;
55082;SDS011;40978;52.850;6.506;2022-08-30T06:13:13;7.75;;;6.15;;
55082;SDS011;40978;52.850;6.506;2022-08-30T06:15:39;9.57;;;5.30;;
55082;SDS011;40978;52.850;6.506;2022-08-30T06:18:07;6.28;;;5.03;;
55082;SDS011;40978;52.850;6.506;2022-08-30T06:20:37;8.30;;;4.95;;
55082;SDS011;40978;52.850;6.506;2022-08-30T06:23:04;7.53;;;4.60;;
55082;SDS011;40978;52.850;6.506;2022-08-30T06:25:30;10.00;;;4.95;;
55082;SDS011;40978;52.850;6.506;2022-08-30T06:27:55;5.88;;;4.43;;
55082;SDS011;40978;52.850;6.506;2022-08-30T06:30:21;8.77;;;5.10;;
55082;SDS011;40978;52.850;6.506;2022-08-30T06:32:47;6.28;;;4.15;;
55082;SDS011;40978;52.850;6.506;2022-08-30T06:35:12;7.80;;;4.10;;
55082;SDS011;40978;52.850;6.506;2022-08-30T06:37:38;5.13;;;3.72;;
55082;SDS011;40978;52.850;6.506;2022-08-30T06:40:04;7.53;;;3.60;;
55082;SDS011;40978;52.850;6.506;2022-08-30T06:42:31;7.70;;;3.63;;
55082;SDS011;40978;52.850;6.506;2022-08-30T06:44:58;7.75;;;3.40;;
55082;SDS011;40978;52.850;6.506;2022-08-30T06:47:25;6.97;;;3.30;;
55082;SDS011;40978;52.850;6.506;2022-08-30T06:49:52;3.70;;;2.97;;
55082;SDS011;40978;52.850;6.506;2022-08-30T06:52:18;5.32;;;2.80;;
55082;SDS011;40978;52.850;6.506;2022-08-30T06:54:43;6.22;;;2.95;;
55082;SDS011;40978;52.850;6.506;2022-08-30T06:57:09;4.55;;;2.88;;
55082;SDS011;40978;52.850;6.506;2022-08-30T06:59:37;4.40;;;2.40;;
55082;SDS011;40978;52.850;6.506;2022-08-30T07:02:03;5.07;;;2.08;;
55082;SDS011;40978;52.850;6.506;2022-08-30T07:04:30;3.47;;;1.90;;
55082;SDS011;40978;52.850;6.506;2022-08-30T07:06:56;5.50;;;2.38;;
55082;SDS011;40978;52.850;6.506;2022-08-30T07:09:22;3.15;;;1.10;;
55082;SDS011;40978;52.850;6.506;2022-08-30T07:11:48;3.63;;;1.48;;
55082;SDS011;40978;52.850;6.506;2022-08-30T07:14:13;3.45;;;1.60;;
55082;SDS011;40978;52.850;6.506;2022-08-30T07:16:39;3.67;;;1.42;;
55082;SDS011;40978;52.850;6.506;2022-08-30T07:19:05;2.90;;;1.40;;
55082;SDS011;40978;52.850;6.506;2022-08-30T07:21:32;4.32;;;1.17;;
55082;SDS011;40978;52.850;6.506;2022-08-30T07:24:00;2.53;;;1.20;;
55082;SDS011;40978;52.850;6.506;2022-08-30T07:26:28;4.75;;;1.30;;
55082;SDS011;40978;52.850;6.506;2022-08-30T07:28:57;2.75;;;1.20;;
55082;SDS011;40978;52.850;6.506;2022-08-30T07:31:23;5.55;;;1.20;;
55082;SDS011;40978;52.850;6.506;2022-08-30T07:33:49;4.32;;;1.20;;
55082;SDS011;40978;52.850;6.506;2022-08-30T07:36:16;5.63;;;1.13;;
55082;SDS011;40978;52.850;6.506;2022-08-30T07:38:44;4.18;;;1.17;;
55082;SDS011;40978;52.850;6.506;2022-08-30T07:41:14;5.40;;;1.38;;
55082;SDS011;40978;52.850;6.506;2022-08-30T07:46:10;3.00;;;0.90;;
55082;SDS011;40978;52.850;6.506;2022-08-30T07:48:36;5.00;;;0.95;;
55082;SDS011;40978;52.850;6.506;2022-08-30T07:51:01;3.40;;;1.20;;
55082;SDS011;40978;52.850;6.506;2022-08-30T07:53:29;2.92;;;0.85;;
55082;SDS011;40978;52.850;6.506;2022-08-30T07:55:55;5.18;;;1.15;;
55082;SDS011;40978;52.850;6.506;2022-08-30T07:58:21;3.50;;;0.75;;
55082;SDS011;40978;52.850;6.506;2022-08-30T08:00:47;2.75;;;0.75;;
55082;SDS011;40978;52.850;6.506;2022-08-30T08:03:12;3.38;;;0.80;;
55082;SDS011;40978;52.850;6.506;2022-08-30T08:05:42;2.33;;;0.95;;
55082;SDS011;40978;52.850;6.506;2022-08-30T08:08:09;2.15;;;0.75;;
55082;SDS011;40978;52.850;6.506;2022-08-30T08:10:36;2.90;;;0.98;;
55082;SDS011;40978;52.850;6.506;2022-08-30T08:13:04;2.40;;;0.90;;
55082;SDS011;40978;52.850;6.506;2022-08-30T08:15:30;3.13;;;0.77;;
55082;SDS011;40978;52.850;6.506;2022-08-30T08:17:56;5.10;;;0.88;;
55082;SDS011;40978;52.850;6.506;2022-08-30T08:20:23;1.92;;;0.98;;
55082;SDS011;40978;52.850;6.506;2022-08-30T08:22:50;4.35;;;0.90;;
55082;SDS011;40978;52.850;6.506;2022-08-30T08:25:16;3.15;;;0.98;;
55082;SDS011;40978;52.850;6.506;2022-08-30T08:27:42;1.92;;;0.85;;
55082;SDS011;40978;52.850;6.506;2022-08-30T08:30:12;1.83;;;0.73;;
55082;SDS011;40978;52.850;6.506;2022-08-30T08:32:38;2.92;;;1.20;;
55082;SDS011;40978;52.850;6.506;2022-08-30T08:35:04;2.15;;;0.95;;
55082;SDS011;40978;52.850;6.506;2022-08-30T08:37:30;2.78;;;0.88;;
55082;SDS011;40978;52.850;6.506;2022-08-30T08:39:56;3.42;;;0.75;;
55082;SDS011;40978;52.850;6.506;2022-08-30T08:42:33;1.73;;;0.73;;
55082;SDS011;40978;52.850;6.506;2022-08-30T08:45:12;2.88;;;0.75;;
55082;SDS011;40978;52.850;6.506;2022-08-30T08:50:18;3.38;;;0.90;;
55082;SDS011;40978;52.850;6.506;2022-08-30T08:55:32;2.85;;;0.70;;
55082;SDS011;40978;52.850;6.506;2022-08-30T08:58:00;1.83;;;0.80;;
55082;SDS011;40978;52.850;6.506;2022-08-30T09:00:26;2.40;;;0.63;;
55082;SDS011;40978;52.850;6.506;2022-08-30T09:02:58;4.68;;;0.80;;
55082;SDS011;40978;52.850;6.506;2022-08-30T09:05:28;2.10;;;0.70;;
55082;SDS011;40978;52.850;6.506;2022-08-30T09:08:00;2.92;;;0.70;;
55082;SDS011;40978;52.850;6.506;2022-08-30T09:10:28;1.40;;;0.70;;
55082;SDS011;40978;52.850;6.506;2022-08-30T09:12:57;1.15;;;0.60;;
55082;SDS011;40978;52.850;6.506;2022-08-30T09:15:25;1.00;;;0.60;;
55082;SDS011;40978;52.850;6.506;2022-08-30T09:22:51;2.00;;;0.70;;
55082;SDS011;40978;52.850;6.506;2022-08-30T09:25:20;1.17;;;0.60;;
55082;SDS011;40978;52.850;6.506;2022-08-30T09:28:07;2.42;;;0.60;;
55082;SDS011;40978;52.850;6.506;2022-08-30T09:30:35;2.50;;;0.63;;
55082;SDS011;40978;52.850;6.506;2022-08-30T09:33:03;2.92;;;0.60;;
55082;SDS011;40978;52.850;6.506;2022-08-30T09:35:50;1.50;;;0.50;;
55082;SDS011;40978;52.850;6.506;2022-08-30T09:38:19;0.90;;;0.40;;
55082;SDS011;40978;52.850;6.506;2022-08-30T09:41:01;2.50;;;0.50;;
55082;SDS011;40978;52.850;6.506;2022-08-30T09:44:08;2.30;;;0.63;;
55082;SDS011;40978;52.850;6.506;2022-08-30T09:46:59;2.83;;;0.70;;
55082;SDS011;40978;52.850;6.506;2022-08-30T09:51:58;1.05;;;0.60;;
55082;SDS011;40978;52.850;6.506;2022-08-30T10:00:34;1.47;;;0.50;;
55082;SDS011;40978;52.850;6.506;2022-08-30T10:06:08;3.72;;;0.82;;
55082;SDS011;40978;52.850;6.506;2022-08-30T10:08:57;2.22;;;0.80;;
55082;SDS011;40978;52.850;6.506;2022-08-30T10:17:18;2.58;;;0.50;;
55082;SDS011;40978;52.850;6.506;2022-08-30T10:22:36;4.68;;;1.00;;
55082;SDS011;40978;52.850;6.506;2022-08-30T10:25:14;2.13;;;0.50;;
55082;SDS011;40978;52.850;6.506;2022-08-30T10:30:27;2.63;;;0.52;;
55082;SDS011;40978;52.850;6.506;2022-08-30T10:33:03;2.72;;;0.60;;
55082;SDS011;40978;52.850;6.506;2022-08-30T10:35:43;2.88;;;0.73;;
55082;SDS011;40978;52.850;6.506;2022-08-30T10:38:28;1.90;;;0.70;;
55082;SDS011;40978;52.850;6.506;2022-08-30T10:44:05;2.70;;;0.50;;
55082;SDS011;40978;52.850;6.506;2022-08-30T10:49:16;1.42;;;0.50;;
55082;SDS011;40978;52.850;6.506;2022-08-30T10:54:40;1.95;;;0.70;;
55082;SDS011;40978;52.850;6.506;2022-08-30T10:57:12;2.00;;;0.50;;
55082;SDS011;40978;52.850;6.506;2022-08-30T10:59:41;2.60;;;0.45;;
55082;SDS011;40978;52.850;6.506;2022-08-30T11:04:54;2.80;;;0.60;;
55082;SDS011;40978;52.850;6.506;2022-08-30T11:07:51;1.80;;;0.50;;
55082;SDS011;40978;52.850;6.506;2022-08-30T11:13:34;1.60;;;0.50;;
55082;SDS011;40978;52.850;6.506;2022-08-30T11:16:06;1.65;;;0.47;;
55082;SDS011;40978;52.850;6.506;2022-08-30T11:18:52;1.73;;;0.60;;
55082;SDS011;40978;52.850;6.506;2022-08-30T11:21:31;1.40;;;0.40;;
55082;SDS011;40978;52.850;6.506;2022-08-30T11:31:56;3.30;;;0.50;;
55082;SDS011;40978;52.850;6.506;2022-08-30T11:40:01;1.52;;;0.55;;
55082;SDS011;40978;52.850;6.506;2022-08-30T11:42:33;3.60;;;0.50;;
55082;SDS011;40978;52.850;6.506;2022-08-30T11:47:55;2.55;;;0.50;;
55082;SDS011;40978;52.850;6.506;2022-08-30T11:50:24;3.20;;;0.70;;
55082;SDS011;40978;52.850;6.506;2022-08-30T12:03:39;1.60;;;0.55;;
55082;SDS011;40978;52.850;6.506;2022-08-30T12:06:06;1.52;;;0.60;;
55082;SDS011;40978;52.850;6.506;2022-08-30T12:16:09;1.80;;;0.90;;
55082;SDS011;40978;52.850;6.506;2022-08-30T12:26:29;1.55;;;0.60;;
55082;SDS011;40978;52.850;6.506;2022-08-30T12:32:12;3.58;;;0.63;;
55082;SDS011;40978;52.850;6.506;2022-08-30T12:37:10;2.17;;;0.57;;
55082;SDS011;40978;52.850;6.506;2022-08-30T12:39:47;1.13;;;0.50;;
55082;SDS011;40978;52.850;6.506;2022-08-30T12:42:24;2.90;;;0.65;;
55082;SDS011;40978;52.850;6.506;2022-08-30T12:44:53;4.68;;;0.70;;
55082;SDS011;40978;52.850;6.506;2022-08-30T12:47:40;4.45;;;0.60;;
55082;SDS011;40978;52.850;6.506;2022-08-30T12:51:23;0.53;;;0.20;;
55082;SDS011;40978;52.850;6.506;2022-08-30T12:56:07;2.22;;;0.50;;
55082;SDS011;40978;52.850;6.506;2022-08-30T13:01:31;2.05;;;0.60;;
55082;SDS011;40978;52.850;6.506;2022-08-30T13:04:01;1.70;;;0.40;;
55082;SDS011;40978;52.850;6.506;2022-08-30T13:06:57;2.72;;;0.70;;
55082;SDS011;40978;52.850;6.506;2022-08-30T13:12:02;1.10;;;0.50;;
55082;SDS011;40978;52.850;6.506;2022-08-30T13:14:44;1.77;;;0.30;;
55082;SDS011;40978;52.850;6.506;2022-08-30T13:17:18;0.82;;;0.40;;
55082;SDS011;40978;52.850;6.506;2022-08-30T13:23:02;1.10;;;0.40;;
55082;SDS011;40978;52.850;6.506;2022-08-30T13:25:35;0.82;;;0.43;;
55082;SDS011;40978;52.850;6.506;2022-08-30T13:28:02;3.28;;;0.30;;
55082;SDS011;40978;52.850;6.506;2022-08-30T13:30:30;1.40;;;0.50;;
55082;SDS011;40978;52.850;6.506;2022-08-30T13:32:56;1.00;;;0.40;;
55082;SDS011;40978;52.850;6.506;2022-08-30T13:35:22;1.15;;;0.40;;
55082;SDS011;40978;52.850;6.506;2022-08-30T13:37:48;1.95;;;0.40;;
55082;SDS011;40978;52.850;6.506;2022-08-30T13:40:14;1.13;;;0.40;;
55082;SDS011;40978;52.850;6.506;2022-08-30T13:42:41;2.05;;;0.40;;
55082;SDS011;40978;52.850;6.506;2022-08-30T13:45:08;2.42;;;0.50;;
55082;SDS011;40978;52.850;6.506;2022-08-30T13:47:35;1.60;;;0.40;;
55082;SDS011;40978;52.850;6.506;2022-08-30T13:50:01;3.03;;;0.47;;
55082;SDS011;40978;52.850;6.506;2022-08-30T13:52:27;0.73;;;0.30;;
55082;SDS011;40978;52.850;6.506;2022-08-30T13:54:54;1.30;;;0.43;;
55082;SDS011;40978;52.850;6.506;2022-08-30T13:57:21;6.10;;;0.40;;
55082;SDS011;40978;52.850;6.506;2022-08-30T13:59:49;2.88;;;0.50;;
55082;SDS011;40978;52.850;6.506;2022-08-30T14:02:15;1.10;;;0.50;;
55082;SDS011;40978;52.850;6.506;2022-08-30T14:04:41;3.45;;;0.50;;
55082;SDS011;40978;52.850;6.506;2022-08-30T14:07:06;1.35;;;0.50;;
55082;SDS011;40978;52.850;6.506;2022-08-30T14:09:32;3.45;;;0.40;;
55082;SDS011;40978;52.850;6.506;2022-08-30T14:11:58;0.98;;;0.40;;
55082;SDS011;40978;52.850;6.506;2022-08-30T14:14:24;1.05;;;0.57;;
55082;SDS011;40978;52.850;6.506;2022-08-30T14:16:50;1.30;;;0.40;;
55082;SDS011;40978;52.850;6.506;2022-08-30T14:19:16;1.50;;;0.30;;
55082;SDS011;40978;52.850;6.506;2022-08-30T14:21:42;2.20;;;0.50;;
55082;SDS011;40978;52.850;6.506;2022-08-30T14:24:09;1.13;;;0.50;;
55082;SDS011;40978;52.850;6.506;2022-08-30T14:26:36;1.40;;;0.40;;
55082;SDS011;40978;52.850;6.506;2022-08-30T14:29:06;0.85;;;0.40;;
55082;SDS011;40978;52.850;6.506;2022-08-30T14:31:34;3.38;;;0.63;;
55082;SDS011;40978;52.850;6.506;2022-08-30T14:34:01;1.40;;;0.43;;
55082;SDS011;40978;52.850;6.506;2022-08-30T14:36:27;0.88;;;0.40;;
55082;SDS011;40978;52.850;6.506;2022-08-30T14:38:53;1.55;;;0.47;;
55082;SDS011;40978;52.850;6.506;2022-08-30T14:41:19;1.08;;;0.40;;
55082;SDS011;40978;52.850;6.506;2022-08-30T14:43:44;1.92;;;0.45;;
55082;SDS011;40978;52.850;6.506;2022-08-30T14:46:10;2.83;;;0.40;;
55082;SDS011;40978;52.850;6.506;2022-08-30T14:48:36;2.80;;;0.60;;
55082;SDS011;40978;52.850;6.506;2022-08-30T14:51:09;0.80;;;0.32;;
55082;SDS011;40978;52.850;6.506;2022-08-30T14:53:36;1.80;;;0.40;;
55082;SDS011;40978;52.850;6.506;2022-08-30T14:56:06;2.75;;;2.15;;
55082;SDS011;40978;52.850;6.506;2022-08-30T14:58:36;3.65;;;1.08;;
55082;SDS011;40978;52.850;6.506;2022-08-30T15:01:04;3.58;;;0.40;;
55082;SDS011;40978;52.850;6.506;2022-08-30T15:03:32;1.40;;;0.50;;
55082;SDS011;40978;52.850;6.506;2022-08-30T15:05:58;2.60;;;0.40;;
55082;SDS011;40978;52.850;6.506;2022-08-30T15:08:24;1.88;;;0.43;;
55082;SDS011;40978;52.850;6.506;2022-08-30T15:10:50;1.17;;;0.45;;
55082;SDS011;40978;52.850;6.506;2022-08-30T15:13:15;2.65;;;0.50;;
55082;SDS011;40978;52.850;6.506;2022-08-30T15:15:41;3.03;;;0.60;;
55082;SDS011;40978;52.850;6.506;2022-08-30T15:18:07;2.50;;;0.57;;
55082;SDS011;40978;52.850;6.506;2022-08-30T15:20:33;3.00;;;0.50;;
55082;SDS011;40978;52.850;6.506;2022-08-30T15:22:59;0.90;;;0.25;;
55082;SDS011;40978;52.850;6.506;2022-08-30T15:25:25;3.50;;;0.40;;
55082;SDS011;40978;52.850;6.506;2022-08-30T15:27:51;3.20;;;0.77;;
55082;SDS011;40978;52.850;6.506;2022-08-30T15:30:16;2.25;;;0.32;;
55082;SDS011;40978;52.850;6.506;2022-08-30T15:32:42;2.20;;;0.40;;
55082;SDS011;40978;52.850;6.506;2022-08-30T15:35:08;1.30;;;0.50;;
55082;SDS011;40978;52.850;6.506;2022-08-30T15:37:33;1.13;;;0.30;;
55082;SDS011;40978;52.850;6.506;2022-08-30T15:40:02;1.90;;;0.88;;
55082;SDS011;40978;52.850;6.506;2022-08-30T15:42:28;1.25;;;0.40;;
55082;SDS011;40978;52.850;6.506;2022-08-30T15:44:54;1.23;;;0.40;;
55082;SDS011;40978;52.850;6.506;2022-08-30T15:47:20;3.05;;;0.40;;
55082;SDS011;40978;52.850;6.506;2022-08-30T15:49:57;1.77;;;0.40;;
55082;SDS011;40978;52.850;6.506;2022-08-30T15:52:27;1.25;;;0.32;;
55082;SDS011;40978;52.850;6.506;2022-08-30T15:54:53;1.70;;;0.50;;
55082;SDS011;40978;52.850;6.506;2022-08-30T15:57:19;2.45;;;0.90;;
55082;SDS011;40978;52.850;6.506;2022-08-30T15:59:45;3.38;;;0.50;;
55082;SDS011;40978;52.850;6.506;2022-08-30T16:02:10;2.92;;;0.43;;
55082;SDS011;40978;52.850;6.506;2022-08-30T16:04:36;2.47;;;0.50;;
55082;SDS011;40978;52.850;6.506;2022-08-30T16:07:03;1.10;;;0.52;;
55082;SDS011;40978;52.850;6.506;2022-08-30T16:09:30;2.97;;;0.30;;
55082;SDS011;40978;52.850;6.506;2022-08-30T16:11:57;1.77;;;0.40;;
55082;SDS011;40978;52.850;6.506;2022-08-30T16:14:22;2.83;;;0.50;;
55082;SDS011;40978;52.850;6.506;2022-08-30T16:16:48;2.42;;;0.50;;
55082;SDS011;40978;52.850;6.506;2022-08-30T16:19:14;1.95;;;0.45;;
55082;SDS011;40978;52.850;6.506;2022-08-30T16:21:40;2.60;;;0.50;;
55082;SDS011;40978;52.850;6.506;2022-08-30T16:24:07;3.65;;;0.45;;
55082;SDS011;40978;52.850;6.506;2022-08-30T16:26:34;2.47;;;0.50;;
55082;SDS011;40978;52.850;6.506;2022-08-30T16:29:01;0.93;;;0.47;;
55082;SDS011;40978;52.850;6.506;2022-08-30T16:31:28;0.95;;;0.52;;
55082;SDS011;40978;52.850;6.506;2022-08-30T16:33:56;0.77;;;0.40;;
55082;SDS011;40978;52.850;6.506;2022-08-30T16:36:22;2.08;;;0.85;;
55082;SDS011;40978;52.850;6.506;2022-08-30T16:38:50;5.72;;;1.00;;
55082;SDS011;40978;52.850;6.506;2022-08-30T16:41:16;1.73;;;0.70;;
55082;SDS011;40978;52.850;6.506;2022-08-30T16:43:42;3.90;;;0.93;;
55082;SDS011;40978;52.850;6.506;2022-08-30T16:46:12;3.38;;;0.65;;
55082;SDS011;40978;52.850;6.506;2022-08-30T16:48:40;3.78;;;0.50;;